Terminal Aerodrome Forecast
Issued by NWS

Home | Current Version | Previous Version | Graphics & Text | Print | Product List | Glossary On
Versions: 1 2 3 4 5 6 7 8 9 10 11 12 13 14 15 16 17 18 19 20 21 22 23 24 25 26 27
030
FTUS43 KBIS 272208 AAC
TAFMOT
TAF AMD
KMOT 272208Z 2722/2818 01009KT P6SM VCFG SCT002 BKN005
     FM280200 04008KT 2SM BR OVC003
     FM280500 06007KT 1SM BR OVC003
     FM281600 08008KT 3SM BR OVC003=

USA.gov is the U.S. government's official web portal to all federal, state and local government web resources and services.